Terminal Aerodrome Forecast
Issued by NWS

Home | Current Version | Previous Version | Text Only | Print | Product List | Glossary On
Versions: 1 2 3 4 5 6 7 8 9 10 11 12 13 14 15 16 17 18 19 20 21
358
FTUS45 KRIW 232339
TAFCPR
TAF
KCPR 232339Z 2400/2424 36011KT P6SM VCSH SCT008 BKN018
      TEMPO 2400/2401 5SM -RA SCT014 BKN023
     FM240100 36011KT 6SM -RA SCT007 OVC013
     FM240400 36006KT P6SM VCSH SCT013 OVC019
     FM240900 35006KT P6SM OVC020
     FM241400 22006KT P6SM SCT025
     FM241900 23012KT P6SM FEW060 SCT200=

USA.gov is the U.S. government's official web portal to all federal, state and local government web resources and services.